• Join FlightAware (Why Join?)
  • Login
  • US Flag 
12:28PM EDT


 

Airport Tracker/Info


-or-


 

Live Flight TrackerFlight Track Log ✈ VH-EQD ✈ 07-Sep-2013 ✈ YBAF - YBAF

Flight Track Log - Related Links

Times and Time Zones

All times are in EDT time to prevent confusion due to time zone crossing. See the VH-EQD flight status page for this flight to view local times or setup timezone preferences in your user account.

Time Position Orientation Groundspeed Altitude Reporting Facility
EDT Latitude Longitude Course Direction KTS MPH feet Rate Location/Type
11:14PM -27.5610 152.9780 318° Northwest 104 120 700  Level FlightAware
11:14PM -27.5570 152.9770 348° North 121 139 700 240 Level FlightAware
11:15PM -27.5470 152.9760 355° North 127 146 800  Climbing FlightAware
11:15PM -27.5340 152.9750 356° North 142 163 700 -180 Descending FlightAware
11:15PM -27.5200 152.9740 356° North 147 169 700  Level FlightAware
11:16PM -27.5070 152.9760 North 143 165 700 120 Level FlightAware
11:16PM -27.4870 152.9760 360° North 144 166 800 60 Climbing FlightAware
11:16PM -27.4710 152.9770 North 139 160 800 120 Level FlightAware
11:17PM -27.4580 152.9770 360° North 134 154 900 240 Climbing FlightAware
11:17PM -27.4400 152.9770 360° North 134 154 1,000 300 Climbing FlightAware
11:17PM -27.4360 152.9780 13° North 132 152 1,100 600 Climbing FlightAware
11:18PM -27.4280 152.9800 13° North 132 152 1,200 300 Climbing FlightAware
11:18PM -27.4150 152.9800 360° North 130 150 1,300 420 Climbing FlightAware
11:18PM -27.4030 152.9830 13° North 127 146 1,500 420 Climbing FlightAware
11:19PM -27.3920 152.9850 North 125 144 1,600 360 Climbing FlightAware
11:19PM -27.3770 152.9870 North 125 144 1,800 480 Climbing FlightAware
11:19PM -27.3650 152.9880 North 125 144 2,000 600 Climbing FlightAware
11:20PM -27.3540 152.9900 North 125 144 2,200 480 Climbing FlightAware
11:20PM -27.3450 152.9910 North 125 144 2,300 480 Climbing FlightAware
11:20PM -27.3340 152.9930 North 127 146 2,500 600 Climbing FlightAware
11:21PM -27.3220 152.9940 North 132 152 2,700 480 Climbing FlightAware
11:21PM -27.3130 152.9960 11° North 131 151 2,800 600 Climbing FlightAware
11:21PM -27.2970 152.9980 North 131 151 3,100 660 Climbing FlightAware
11:21PM -27.2910 152.9980 360° North 134 154 3,200 360 Climbing FlightAware
11:22PM -27.2780 153.0000 North 137 158 3,300 420 Climbing FlightAware
11:22PM -27.2660 153.0020 North 139 160 3,500 480 Climbing FlightAware
11:22PM -27.2570 153.0030 North 140 161 3,600 480 Climbing FlightAware
11:23PM -27.2430 153.0040 North 140 161 3,800 600 Climbing FlightAware
11:23PM -27.2300 153.0060 North 142 163 4,000 600 Climbing FlightAware
11:23PM -27.2170 153.0080 North 143 165 4,200 600 Climbing FlightAware
11:24PM -27.2040 153.0100 North 143 165 4,400 480 Climbing FlightAware
11:24PM -27.1940 153.0110 North 143 165 4,500 480 Climbing FlightAware
11:24PM -27.1810 153.0130 North 142 163 4,700 600 Climbing FlightAware
11:25PM -27.1680 153.0150 North 142 163 4,900 480 Climbing FlightAware
11:25PM -27.1580 153.0160 North 142 163 5,000 480 Climbing FlightAware
11:25PM -27.1450 153.0180 North 142 163 5,200 600 Climbing FlightAware
11:26PM -27.1310 153.0200 North 142 163 5,400 420 Climbing FlightAware
11:26PM -27.1180 153.0210 North 145 167 5,500 300 Climbing FlightAware
11:26PM -27.1080 153.0230 10° North 146 168 5,600 300 Climbing FlightAware
11:26PM -27.0950 153.0240 North 146 168 5,700  Climbing FlightAware
11:27PM -27.0810 153.0260 North 154 177 5,600  Descending FlightAware
11:27PM -27.0590 153.0290 North 156 180 5,700  Climbing FlightAware
11:28PM -27.0480 153.0310 North 155 178 5,600  Descending FlightAware
11:28PM -27.0340 153.0320 North 153 176 5,700  Climbing FlightAware
11:28PM -27.0200 153.0330 North 153 176 5,600  Descending FlightAware
11:28PM -27.0130 153.0320 353° North 153 176 5,700  Climbing FlightAware
11:29PM -26.9990 153.0300 353° North 152 175 5,600  Descending FlightAware
11:29PM -26.9850 153.0280 353° North 151 174 5,700 120 Climbing FlightAware
11:29PM -26.9680 153.0250 351° North 152 175 5,700 -180 Level FlightAware
11:30PM -26.9540 153.0220 349° North 152 175 5,600 -180 Descending FlightAware
11:30PM -26.9390 153.0200 353° North 152 175 5,600 120 Level FlightAware
11:30PM -26.9250 153.0170 349° North 152 175 5,700  Climbing FlightAware
11:31PM -26.9160 153.0160 354° North 152 175 5,600  Descending FlightAware
11:31PM -26.9010 153.0130 350° North 153 176 5,700  Climbing FlightAware
11:31PM -26.8870 153.0110 353° North 153 176 5,600  Descending FlightAware
11:32PM -26.8760 153.0090 351° North 153 176 5,700 120 Climbing FlightAware
11:32PM -26.8620 153.0070 353° North 153 176 5,700  Level FlightAware
11:32PM -26.8480 153.0040 349° North 155 178 5,700  Level FlightAware
11:33PM -26.8390 153.0030 354° North 154 177 5,700  Level FlightAware
11:33PM -26.8160 153.0050 North 153 176 5,700 -120 Level FlightAware
11:33PM -26.8030 153.0100 19° North 152 175 5,600  Descending FlightAware
11:34PM -26.7890 153.0150 18° North 151 174 5,700 120 Climbing FlightAware
11:34PM -26.7740 153.0200 17° North 152 175 5,700  Level FlightAware
11:34PM -26.7590 153.0260 20° North 152 175 5,700 -180 Level FlightAware
11:35PM -26.7460 153.0310 19° North 153 176 5,600  Descending FlightAware
11:35PM -26.7320 153.0360 18° North 153 176 5,700 120 Climbing FlightAware
11:35PM -26.7190 153.0420 22° Northeast 152 175 5,700  Level FlightAware
11:36PM -26.7050 153.0470 18° North 152 175 5,700  Level FlightAware
11:36PM -26.6950 153.0500 15° North 152 175 5,700  Level FlightAware
11:36PM -26.6790 153.0570 21° North 153 176 5,700  Level FlightAware
11:37PM -26.6660 153.0620 19° North 152 175 5,700  Level FlightAware
11:37PM -26.6520 153.0670 18° North 152 175 5,700  Level FlightAware
11:37PM -26.6420 153.0710 20° North 153 176 5,700  Level FlightAware
11:38PM -26.6330 153.0730 11° North 154 177 5,700  Level FlightAware
11:38PM -26.6170 153.0740 North 154 177 5,700  Level FlightAware
11:38PM -26.6140 153.0620 286° West 155 178 5,700  Level FlightAware
11:39PM -26.6150 153.0400 267° West 147 169 5,700  Level FlightAware
11:39PM -26.6180 153.0340 241° Southwest 146 168 5,700  Level FlightAware
11:39PM -26.6270 153.0200 234° Southwest 148 170 5,700  Level FlightAware
11:39PM -26.6340 153.0060 241° Southwest 149 171 5,700  Level FlightAware
11:40PM -26.6410 152.9930 239° Southwest 148 170 5,700  Level FlightAware
11:40PM -26.6460 152.9790 248° West 148 170 5,700  Level FlightAware
11:40PM -26.6520 152.9660 243° Southwest 148 170 5,700  Level FlightAware
11:41PM -26.6570 152.9550 243° Southwest 148 170 5,700  Level FlightAware
11:41PM -26.6650 152.9380 242° Southwest 147 169 5,700  Level FlightAware
11:41PM -26.6680 152.9310 244° Southwest 146 168 5,700  Level FlightAware
11:42PM -26.6740 152.9180 243° Southwest 147 169 5,700  Level FlightAware
11:42PM -26.6800 152.9050 243° Southwest 147 169 5,700  Level FlightAware
11:42PM -26.6850 152.8950 241° Southwest 148 170 5,700  Level FlightAware
11:43PM -26.6920 152.8800 242° Southwest 148 170 5,700  Level FlightAware
11:43PM -26.6960 152.8710 244° Southwest 147 169 5,700  Level FlightAware
11:43PM -26.7020 152.8570 244° Southwest 148 170 5,700  Level FlightAware
11:44PM -26.7120 152.8370 241° Southwest 149 171 5,700  Level FlightAware
11:44PM -26.7180 152.8230 244° Southwest 149 171 5,700  Level FlightAware
11:44PM -26.7260 152.8060 242° Southwest 147 169 5,700  Level FlightAware
11:45PM -26.7330 152.7920 241° Southwest 148 170 5,700  Level FlightAware
11:45PM -26.7360 152.7850 244° Southwest 148 170 5,700  Level FlightAware
11:45PM -26.7430 152.7680 245° Southwest 148 170 5,700  Level FlightAware
11:46PM -26.7500 152.7560 237° Southwest 143 165 5,700 -180 Level FlightAware
11:46PM -26.7600 152.7460 222° Southwest 143 165 5,600  Descending FlightAware
11:46PM -26.7690 152.7380 218° Southwest 143 165 5,700 120 Climbing FlightAware
11:47PM -26.7790 152.7270 224° Southwest 143 165 5,700  Level FlightAware
11:47PM -26.7900 152.7160 222° Southwest 144 166 5,700  Level FlightAware
11:47PM -26.8000 152.7050 224° Southwest 145 167 5,700  Level FlightAware
11:48PM -26.8090 152.6950 225° Southwest 145 167 5,700  Level FlightAware
11:48PM -26.8170 152.6860 225° Southwest 147 169 5,700  Level FlightAware
11:48PM -26.8270 152.6750 224° Southwest 147 169 5,700  Level FlightAware
11:49PM -26.8360 152.6650 225° Southwest 145 167 5,700  Level FlightAware
11:49PM -26.8430 152.6580 222° Southwest 145 167 5,700  Level FlightAware
11:49PM -26.8530 152.6460 227° Southwest 146 168 5,700  Level FlightAware
11:49PM -26.8630 152.6360 222° Southwest 145 167 5,700  Level FlightAware
11:50PM -26.8720 152.6260 225° Southwest 146 168 5,700  Level FlightAware
11:50PM -26.8820 152.6150 224° Southwest 146 168 5,700  Level FlightAware
11:51PM -26.8940 152.6020 224° Southwest 147 169 5,700  Level FlightAware
11:51PM -26.9020 152.5940 222° Southwest 145 167 5,700  Level FlightAware
11:51PM -26.9120 152.5830 224° Southwest 145 167 5,700  Level FlightAware
11:51PM -26.9200 152.5780 209° Southwest 142 163 5,700  Level FlightAware
11:51PM -26.9230 152.5780 180° South 142 163 5,700  Level FlightAware
11:52PM -26.9350 152.5830 160° South 141 162 5,700  Level FlightAware
11:52PM -26.9460 152.5920 144° Southeast 142 163 5,700  Level FlightAware
11:52PM -26.9560 152.6000 145° Southeast 142 163 5,700  Level FlightAware
11:53PM -26.9680 152.6080 149° Southeast 142 163 5,700  Level FlightAware
11:53PM -26.9790 152.6150 150° Southeast 142 163 5,700  Level FlightAware
11:53PM -26.9910 152.6230 149° Southeast 143 165 5,700  Level FlightAware
11:54PM -27.0000 152.6280 154° Southeast 141 162 5,700  Level FlightAware
11:54PM -27.0100 152.6350 148° Southeast 141 162 5,700  Level FlightAware
11:54PM -27.0220 152.6430 149° Southeast 141 162 5,700  Level FlightAware
11:55PM -27.0340 152.6500 153° Southeast 141 162 5,700  Level FlightAware
11:55PM -27.0450 152.6580 147° Southeast 142 163 5,700  Level FlightAware
11:55PM -27.0590 152.6680 148° Southeast 143 165 5,700  Level FlightAware
11:56PM -27.0640 152.6710 152° Southeast 142 163 5,700  Level FlightAware
11:56PM -27.0750 152.6780 150° Southeast 140 161 5,700  Level FlightAware
11:56PM -27.0880 152.6870 148° Southeast 141 162 5,700  Level FlightAware
11:57PM -27.1010 152.6960 148° Southeast 139 160 5,700  Level FlightAware
11:57PM -27.1120 152.7030 150° Southeast 141 162 5,700  Level FlightAware
11:57PM -27.1240 152.7110 149° Southeast 140 161 5,700  Level FlightAware
11:58PM -27.1350 152.7180 150° Southeast 142 163 5,700  Level FlightAware
11:58PM -27.1490 152.7270 150° Southeast 142 163 5,700  Level FlightAware
11:58PM -27.1610 152.7350 149° Southeast 142 163 5,700 -300 Level FlightAware
11:59PM -27.1730 152.7430 149° Southeast 152 175 5,500 -600 Descending FlightAware
11:59PM -27.1840 152.7500 150° Southeast 155 178 5,300 -540 Descending FlightAware
11:59PM -27.1940 152.7570 148° Southeast 157 181 5,200 -540 Descending FlightAware
12:00AM -27.2070 152.7660 148° Southeast 158 182 5,000 -720 Descending FlightAware
12:00AM -27.2160 152.7720 149° Southeast 156 180 4,800 -240 Descending FlightAware
12:01AM -27.2391 152.7880 149° Southeast 154 177 4,800 -180 Level Aus ATC (RADAR)
12:01AM -27.2390 152.7880 149° Southeast 155 178 4,700 -1,260 Descending FlightAware
12:01AM -27.2610 152.8020 149° Southeast 159 183 4,100 -600 Descending FlightAware
12:01AM -27.2613 152.8025 149° Southeast 156 180 4,400 -600 Climbing Aus ATC (RADAR)
12:01AM -27.2740 152.8100 151° Southeast 162 186 3,900 -1,080 Descending FlightAware
12:02AM -27.2840 152.8160 152° Southeast 164 189 3,800 -720 Descending FlightAware
12:02AM -27.2950 152.8250 144° Southeast 166 191 3,500 -780 Descending FlightAware
12:02AM -27.3090 152.8350 148° Southeast 166 191 3,300 -720 Descending FlightAware
12:03AM -27.3260 152.8460 150° Southeast 158 182 3,000 -720 Descending FlightAware
12:03AM -27.3380 152.8530 153° Southeast 154 177 2,800 -780 Descending FlightAware
12:03AM -27.3520 152.8590 159° South 156 180 2,500 -780 Descending FlightAware
12:04AM -27.3650 152.8660 154° Southeast 155 178 2,300 -720 Descending FlightAware
12:04AM -27.3820 152.8740 157° South 154 177 2,000 -720 Descending FlightAware
12:05AM -27.3950 152.8800 158° South 158 182 1,800 -600 Descending FlightAware
12:05AM -27.4090 152.8860 159° South 159 183 1,600 -540 Descending FlightAware
12:05AM -27.4170 152.8910 151° Southeast 157 181 1,500 -360 Descending FlightAware
12:05AM -27.4320 152.8950 167° South 147 169 1,400 -300 Descending FlightAware
12:06AM -27.4440 152.9000 160° South 142 163 1,300 -180 Descending FlightAware
12:06AM -27.4580 152.9050 162° South 140 161 1,300  Level FlightAware
12:07AM -27.4720 152.9120 156° South 140 161 1,300 -180 Level FlightAware
12:07AM -27.4850 152.9160 165° South 135 155 1,200 -180 Descending FlightAware
12:07AM -27.4950 152.9220 152° Southeast 134 154 1,200  Level FlightAware
12:07AM -27.5020 152.9250 159° South 131 151 1,200 -180 Level FlightAware
12:08AM -27.5150 152.9320 154° Southeast 133 153 1,100 -180 Descending FlightAware
12:08AM -27.5270 152.9380 156° South 129 148 1,100  Level FlightAware
12:08AM -27.5370 152.9430 156° South 122 140 1,100 -300 Level FlightAware
12:09AM -27.5480 152.9480 158° South 120 138 900 -600 Descending FlightAware
12:09AM -27.5530 152.9510 152° Southeast 123 142 800 -840 Descending FlightAware
12:09AM -27.5550 152.9530 138° Southeast 125 144 700 -840 Descending FlightAware
12:09AM -27.5580 152.9580 124° Southeast 122 140 600 -600 Descending FlightAware
12:10AM -27.5620 152.9680 114° Southeast 111 128 400 -540 Descending FlightAware
12:10AM -27.5650 152.9770 111° Southeast 104 120 300 -180 Descending FlightAware
12:10AM -27.5680 152.9890 106° East 104 120 300  Level FlightAware